Time;durP1;ratioP1;P1;durP2;ratioP2;P2;SDS_P1;SDS_P2;PMS_P1;PMS_P2;Temp;Humidity;BMP_temperature;BMP_pressure;BME280_temperature;BME280_humidity;BME280_pressure;Samples;Min_cycle;Max_cycle;Signal;HPM_P1;HPM_P2
2023/11/09 00:00:40;;;;;;;39.75;36.58;;;12.80;99.90;;;;;;5011632;28;20157;-68
2023/11/09 00:03:07;;;;;;;36.95;34.47;;;12.80;99.90;;;;;;5013802;28;20034;-68
2023/11/09 00:05:33;;;;;;;36.20;33.35;;;12.80;99.90;;;;;;5013378;28;20053;-68
2023/11/09 00:08:00;;;;;;;36.88;33.72;;;12.80;99.90;;;;;;5013396;28;20037;-68
2023/11/09 00:10:26;;;;;;;38.90;35.97;;;12.80;99.90;;;;;;5013295;28;20047;-69
2023/11/09 00:12:53;;;;;;;34.65;31.92;;;12.80;99.90;;;;;;5014024;28;20402;-68
2023/11/09 00:15:22;;;;;;;37.60;34.45;;;12.80;99.90;;;;;;5013048;28;20056;-68
2023/11/09 00:17:51;;;;;;;38.13;34.85;;;12.80;99.90;;;;;;5013641;28;20065;-68
2023/11/09 00:20:17;;;;;;;37.08;33.92;;;12.80;99.90;;;;;;4996023;28;20065;-68
2023/11/09 00:22:46;;;;;;;33.88;30.70;;;12.70;99.90;;;;;;5011871;28;20037;-68
2023/11/09 00:25:12;;;;;;;33.78;31.05;;;12.70;99.90;;;;;;5013019;28;20050;-68
2023/11/09 00:27:39;;;;;;;32.45;29.15;;;12.80;99.90;;;;;;5013300;28;20041;-68
2023/11/09 00:30:06;;;;;;;33.25;30.35;;;12.70;99.90;;;;;;5012970;28;20029;-68
2023/11/09 00:32:33;;;;;;;33.05;29.70;;;12.60;99.90;;;;;;4995178;28;20038;-68
2023/11/09 00:34:59;;;;;;;39.67;36.17;;;12.60;99.90;;;;;;5012065;28;20532;-68
2023/11/09 00:37:28;;;;;;;33.70;30.33;;;12.50;99.90;;;;;;5012395;28;20034;-68
2023/11/09 00:39:59;;;;;;;33.30;29.42;;;12.50;99.90;;;;;;5013187;28;20029;-68
2023/11/09 00:42:25;;;;;;;32.75;28.40;;;12.50;99.90;;;;;;5013199;28;20049;-69
2023/11/09 00:44:51;;;;;;;35.28;31.70;;;12.50;99.90;;;;;;5013258;28;20030;-68
2023/11/09 00:47:17;;;;;;;37.38;34.38;;;12.60;99.90;;;;;;5012339;28;20033;-68
2023/11/09 00:49:43;;;;;;;35.88;31.80;;;12.60;99.90;;;;;;5013127;28;20466;-68
2023/11/09 00:52:09;;;;;;;33.80;30.92;;;12.60;99.90;;;;;;5012383;28;20033;-68
2023/11/09 00:54:35;;;;;;;34.28;30.77;;;12.60;99.90;;;;;;5013263;28;20038;-68
2023/11/09 00:57:02;;;;;;;35.95;32.72;;;12.60;99.90;;;;;;4995842;28;20484;-68
2023/11/09 00:59:28;;;;;;;46.22;38.20;;;12.60;99.90;;;;;;4993337;28;20041;-69
2023/11/09 01:01:54;;;;;;;41.25;37.13;;;12.50;99.90;;;;;;4992901;28;20045;-68
2023/11/09 01:04:20;;;;;;;39.00;35.33;;;12.50;99.90;;;;;;4993588;28;20057;-68
2023/11/09 01:06:46;;;;;;;46.65;42.58;;;12.50;99.90;;;;;;4992573;28;20031;-68
2023/11/09 01:09:14;;;;;;;43.95;39.67;;;12.40;99.90;;;;;;4993110;28;20049;-68
2023/11/09 01:11:40;;;;;;;30.90;26.15;;;12.40;99.90;;;;;;4975172;28;20045;-68
2023/11/09 01:14:06;;;;;;;29.30;26.65;;;12.40;99.90;;;;;;4993459;28;20039;-68
2023/11/09 01:16:32;;;;;;;33.17;30.08;;;12.40;99.90;;;;;;4992355;28;20041;-69
2023/11/09 01:18:58;;;;;;;31.20;26.98;;;12.40;99.90;;;;;;4993089;28;20034;-68
2023/11/09 01:21:24;;;;;;;34.40;31.23;;;12.30;99.90;;;;;;4990815;28;20038;-68
2023/11/09 01:23:50;;;;;;;29.38;26.25;;;12.30;99.90;;;;;;4992908;28;20395;-68
2023/11/09 01:26:17;;;;;;;36.15;28.67;;;12.30;99.90;;;;;;4992574;28;20038;-68
2023/11/09 01:28:43;;;;;;;36.22;31.13;;;12.30;99.90;;;;;;4993112;28;20054;-68
2023/11/09 01:31:09;;;;;;;35.95;32.22;;;12.30;99.90;;;;;;4992126;28;20053;-69
2023/11/09 01:33:36;;;;;;;36.85;33.45;;;12.30;99.90;;;;;;4993018;28;20035;-68
2023/11/09 01:36:02;;;;;;;35.08;31.90;;;12.30;99.90;;;;;;4991082;28;20502;-68
2023/11/09 01:38:28;;;;;;;32.95;29.52;;;12.30;99.90;;;;;;4991485;28;20050;-68
2023/11/09 01:40:55;;;;;;;37.00;32.97;;;12.30;99.90;;;;;;4992465;28;20057;-68
2023/11/09 01:43:21;;;;;;;35.67;32.22;;;12.30;99.90;;;;;;4992638;28;20043;-68
2023/11/09 01:45:50;;;;;;;34.53;31.15;;;12.30;99.90;;;;;;4990841;28;20030;-68
2023/11/09 01:48:21;;;;;;;33.85;30.70;;;12.30;99.90;;;;;;4992359;28;20038;-68
2023/11/09 01:50:47;;;;;;;36.22;29.45;;;12.30;99.90;;;;;;4991381;28;20375;-68
2023/11/09 01:53:13;;;;;;;35.03;31.45;;;12.30;99.90;;;;;;4991555;28;20031;-68
2023/11/09 01:55:39;;;;;;;32.88;27.92;;;12.20;99.90;;;;;;4995358;28;20370;-68
2023/11/09 01:58:05;;;;;;;36.92;32.38;;;12.20;99.90;;;;;;5012151;28;20037;-68
2023/11/09 02:00:32;;;;;;;36.20;32.40;;;12.20;99.90;;;;;;5010116;28;20042;-68
2023/11/09 02:02:59;;;;;;;32.05;28.73;;;12.20;99.90;;;;;;5011715;28;20034;-68
2023/11/09 02:05:25;;;;;;;34.20;30.80;;;12.20;99.90;;;;;;5011925;28;20033;-68
2023/11/09 02:07:54;;;;;;;31.02;27.70;;;12.20;99.90;;;;;;5012020;28;20030;-68
2023/11/09 02:10:21;;;;;;;36.58;32.55;;;12.30;99.90;;;;;;5011569;28;20034;-68
2023/11/09 02:12:47;;;;;;;34.35;31.00;;;12.30;99.90;;;;;;5012346;28;20077;-68
2023/11/09 02:15:13;;;;;;;33.78;30.00;;;12.30;99.90;;;;;;5009956;28;20038;-68
2023/11/09 02:17:40;;;;;;;37.40;33.88;;;12.30;99.90;;;;;;5010363;28;20042;-68
2023/11/09 02:20:06;;;;;;;35.75;31.95;;;12.30;99.90;;;;;;4994310;28;20041;-68
2023/11/09 02:22:32;;;;;;;37.95;30.05;;;12.20;99.90;;;;;;5011609;28;20030;-68
2023/11/09 02:24:58;;;;;;;35.53;32.40;;;12.20;99.90;;;;;;5013705;28;20042;-68
2023/11/09 02:27:25;;;;;;;40.88;37.22;;;12.30;99.90;;;;;;5015307;28;20038;-68
2023/11/09 02:29:51;;;;;;;44.08;39.85;;;12.20;99.90;;;;;;5015678;28;20057;-68
2023/11/09 02:32:19;;;;;;;41.50;37.65;;;12.20;99.90;;;;;;5014292;28;20042;-68
2023/11/09 02:34:47;;;;;;;40.25;36.33;;;12.20;99.90;;;;;;5015643;28;20022;-68
2023/11/09 02:37:13;;;;;;;56.42;42.30;;;12.20;99.90;;;;;;5013746;28;20050;-68
2023/11/09 02:39:39;;;;;;;46.67;42.60;;;12.20;99.90;;;;;;5015928;28;20037;-69
2023/11/09 02:42:06;;;;;;;47.58;43.63;;;12.20;99.90;;;;;;5015124;28;20041;-68
2023/11/09 02:44:33;;;;;;;50.60;45.10;;;12.20;99.90;;;;;;5015427;28;20386;-68
2023/11/09 02:46:59;;;;;;;44.03;40.15;;;12.20;99.90;;;;;;5013966;28;20038;-68
2023/11/09 02:49:25;;;;;;;41.65;37.88;;;12.30;99.90;;;;;;5015678;28;20053;-68
2023/11/09 02:51:51;;;;;;;47.22;42.75;;;12.20;99.90;;;;;;5014854;28;20034;-68
2023/11/09 02:54:18;;;;;;;40.25;36.60;;;12.20;99.90;;;;;;5015240;28;20088;-68
2023/11/09 02:56:44;;;;;;;38.53;34.97;;;12.10;99.90;;;;;;5000456;28;20046;-68
2023/11/09 02:59:11;;;;;;;43.03;38.97;;;12.10;99.90;;;;;;4995531;28;20049;-68
2023/11/09 03:01:37;;;;;;;42.78;39.03;;;12.10;99.90;;;;;;4994708;28;20049;-68
2023/11/09 03:04:03;;;;;;;40.72;34.67;;;12.10;99.90;;;;;;4995945;28;20042;-68
2023/11/09 03:06:29;;;;;;;41.13;34.20;;;12.10;99.90;;;;;;4995009;28;20041;-68
2023/11/09 03:08:55;;;;;;;37.47;33.95;;;12.00;99.90;;;;;;4995248;28;20483;-68
2023/11/09 03:11:21;;;;;;;42.55;38.70;;;12.10;99.90;;;;;;4994904;28;20041;-68
2023/11/09 03:13:47;;;;;;;44.67;34.03;;;12.00;99.90;;;;;;4995367;28;20490;-68
2023/11/09 03:16:13;;;;;;;36.15;32.75;;;12.00;99.90;;;;;;4993953;28;20035;-68
2023/11/09 03:18:42;;;;;;;39.33;29.35;;;11.90;99.90;;;;;;4995257;28;20050;-68
2023/11/09 03:21:09;;;;;;;42.22;30.70;;;11.90;99.90;;;;;;4994811;28;20027;-68
2023/11/09 03:23:35;;;;;;;38.65;31.13;;;11.80;99.90;;;;;;4993996;28;20497;-68
2023/11/09 03:26:01;;;;;;;35.80;31.80;;;11.90;99.90;;;;;;4994673;28;20031;-68
2023/11/09 03:28:27;;;;;;;33.65;29.58;;;11.90;99.90;;;;;;4994902;28;20033;-68
2023/11/09 03:30:55;;;;;;;36.75;28.98;;;11.90;99.90;;;;;;4993994;28;20026;-68
2023/11/09 03:33:21;;;;;;;29.80;26.20;;;11.80;99.90;;;;;;4994884;28;20034;-68
2023/11/09 03:35:47;;;;;;;30.13;26.88;;;11.80;99.90;;;;;;4992820;28;20038;-69
2023/11/09 03:38:13;;;;;;;33.08;26.45;;;11.80;99.90;;;;;;4994708;28;20045;-68
2023/11/09 03:40:39;;;;;;;30.38;26.92;;;11.90;99.90;;;;;;4994407;28;20026;-68
2023/11/09 03:43:05;;;;;;;29.63;24.90;;;11.80;99.90;;;;;;4994758;28;20030;-68
2023/11/09 03:45:32;;;;;;;29.90;25.95;;;11.80;99.90;;;;;;4993729;28;20061;-68
2023/11/09 03:47:58;;;;;;;30.48;27.48;;;11.80;99.90;;;;;;4994985;28;20395;-68
2023/11/09 03:50:24;;;;;;;34.05;25.25;;;11.80;99.90;;;;;;4994161;28;20070;-68
2023/11/09 03:52:50;;;;;;;31.95;26.58;;;11.80;99.90;;;;;;4994550;28;20026;-68
2023/11/09 03:55:16;;;;;;;40.35;27.33;;;11.80;99.90;;;;;;4994911;28;20034;-68
2023/11/09 03:57:43;;;;;;;29.63;26.45;;;11.80;99.90;;;;;;5014013;28;20041;-68
2023/11/09 04:00:13;;;;;;;33.45;24.17;;;11.70;99.90;;;;;;5011467;28;20034;-68
2023/11/09 04:02:41;;;;;;;32.42;29.23;;;11.70;99.90;;;;;;4975101;28;20038;-68
2023/11/09 04:05:11;;;;;;;33.38;29.83;;;11.70;99.90;;;;;;4974835;28;20030;-68
2023/11/09 04:07:41;;;;;;;34.20;25.67;;;11.60;99.90;;;;;;4974611;28;20027;-68
2023/11/09 04:10:09;;;;;;;35.50;28.08;;;11.70;99.90;;;;;;4974754;28;20027;-68
2023/11/09 04:12:36;;;;;;;32.13;28.70;;;11.70;99.90;;;;;;5013068;28;20022;-68
2023/11/09 04:15:05;;;;;;;30.02;27.20;;;11.70;99.90;;;;;;5012450;28;20037;-67
2023/11/09 04:17:32;;;;;;;32.70;28.42;;;11.70;99.90;;;;;;5011846;28;20042;-68
2023/11/09 04:20:02;;;;;;;42.10;38.17;;;11.70;99.90;;;;;;5011857;28;20374;-68
2023/11/09 04:22:28;;;;;;;41.00;36.92;;;11.70;99.90;;;;;;5011434;28;20052;-68
2023/11/09 04:24:54;;;;;;;43.92;39.88;;;11.70;99.90;;;;;;5013499;28;20054;-68
2023/11/09 04:27:21;;;;;;;43.55;38.85;;;11.60;99.90;;;;;;5013172;28;20045;-68
2023/11/09 04:29:49;;;;;;;36.30;33.10;;;11.60;99.90;;;;;;5013081;28;20052;-68
2023/11/09 04:32:18;;;;;;;34.28;30.63;;;11.70;99.90;;;;;;5012629;28;20406;-68
2023/11/09 04:34:45;;;;;;;35.17;31.45;;;11.70;99.90;;;;;;5013413;28;20030;-68
2023/11/09 04:37:14;;;;;;;36.97;32.72;;;11.70;99.90;;;;;;5012793;28;20477;-68
2023/11/09 04:39:46;;;;;;;39.20;35.35;;;11.60;99.90;;;;;;5013572;28;20049;-68
2023/11/09 04:42:18;;;;;;;39.60;35.75;;;11.70;99.90;;;;;;5012510;28;20026;-68
2023/11/09 04:44:47;;;;;;;37.47;34.22;;;11.70;99.90;;;;;;5013483;28;20057;-68
2023/11/09 04:47:14;;;;;;;38.05;34.25;;;11.70;99.90;;;;;;5010852;28;20041;-68
2023/11/09 04:49:45;;;;;;;38.67;35.28;;;11.70;99.90;;;;;;5013271;28;20049;-68
2023/11/09 04:52:15;;;;;;;46.20;41.47;;;11.70;99.90;;;;;;5012848;28;20061;-68
2023/11/09 04:54:56;;;;;;;44.35;39.90;;;11.80;99.90;;;;;;5011835;28;20028;-68
2023/11/09 05:08:33;;;;;;;43.35;39.22;;;11.80;99.90;;;;;;4999639;28;20390;-68
2023/11/09 05:10:59;;;;;;;43.75;39.58;;;11.80;99.90;;;;;;4992736;28;20027;-68
2023/11/09 05:13:26;;;;;;;41.03;37.28;;;11.80;99.90;;;;;;4992043;28;20407;-68
2023/11/09 05:15:53;;;;;;;41.53;37.95;;;11.80;99.90;;;;;;4992649;28;20041;-68
2023/11/09 05:18:20;;;;;;;44.22;40.40;;;11.70;99.90;;;;;;4992832;28;20506;-68
2023/11/09 05:20:48;;;;;;;40.15;36.72;;;11.70;99.90;;;;;;4992922;28;20635;-69
2023/11/09 05:23:14;;;;;;;39.70;35.50;;;11.70;99.90;;;;;;4992936;28;20030;-68
2023/11/09 05:25:43;;;;;;;42.00;38.28;;;11.70;99.90;;;;;;4992036;28;20399;-68
2023/11/09 05:28:09;;;;;;;44.80;40.33;;;11.70;99.90;;;;;;4992914;28;20110;-68
2023/11/09 05:30:36;;;;;;;43.08;38.67;;;11.70;99.90;;;;;;4992133;28;20038;-69
2023/11/09 05:33:02;;;;;;;45.67;41.17;;;11.70;99.90;;;;;;4992782;28;20033;-68
2023/11/09 05:35:28;;;;;;;46.05;42.05;;;11.70;99.90;;;;;;4992916;28;20518;-69
2023/11/09 05:37:56;;;;;;;47.33;42.88;;;11.70;99.90;;;;;;4992715;28;20034;-68
2023/11/09 05:40:22;;;;;;;47.10;43.08;;;11.70;99.90;;;;;;4992542;28;20038;-68
2023/11/09 05:42:48;;;;;;;43.88;40.13;;;11.60;99.90;;;;;;4993045;28;20045;-68
2023/11/09 05:45:14;;;;;;;44.30;39.58;;;11.60;99.90;;;;;;4991890;28;20026;-68
2023/11/09 05:47:40;;;;;;;42.58;38.92;;;11.60;99.90;;;;;;4991501;28;20475;-68
2023/11/09 05:50:08;;;;;;;41.28;37.20;;;11.60;99.90;;;;;;4992507;28;20041;-68
2023/11/09 05:52:35;;;;;;;47.88;43.67;;;11.60;99.90;;;;;;4993055;28;20050;-68
2023/11/09 05:55:01;;;;;;;45.25;40.67;;;11.60;99.90;;;;;;4992502;28;20391;-68
2023/11/09 05:57:27;;;;;;;37.20;33.42;;;11.60;99.90;;;;;;5010683;28;20041;-68
2023/11/09 05:59:53;;;;;;;37.22;33.10;;;11.50;99.90;;;;;;5015763;28;20061;-68
2023/11/09 06:02:19;;;;;;;39.92;33.33;;;11.50;99.90;;;;;;5015009;28;20042;-68
2023/11/09 06:04:46;;;;;;;34.17;30.08;;;11.50;99.90;;;;;;5016194;28;20364;-68
2023/11/09 06:07:13;;;;;;;38.05;34.75;;;11.50;99.90;;;;;;5015929;28;20046;-68
2023/11/09 06:09:39;;;;;;;35.70;32.45;;;11.50;99.90;;;;;;5016065;28;20052;-68
2023/11/09 06:12:08;;;;;;;38.92;33.72;;;11.40;99.90;;;;;;5015725;28;20042;-68
2023/11/09 06:14:34;;;;;;;37.03;33.58;;;11.40;99.90;;;;;;5016236;28;20050;-68
2023/11/09 06:17:01;;;;;;;38.80;31.95;;;11.40;99.90;;;;;;5015157;28;20041;-68
2023/11/09 06:19:28;;;;;;;36.72;33.15;;;11.30;99.90;;;;;;5016213;28;20478;-68
2023/11/09 06:21:57;;;;;;;35.72;30.13;;;11.30;99.90;;;;;;5015656;28;20042;-68
2023/11/09 06:24:23;;;;;;;34.72;31.02;;;11.30;99.90;;;;;;5014160;28;20046;-68
2023/11/09 06:26:51;;;;;;;36.63;31.13;;;11.30;99.90;;;;;;5013678;28;20390;-68
2023/11/09 06:29:17;;;;;;;33.78;29.20;;;11.20;99.90;;;;;;5014117;28;20065;-68
2023/11/09 06:31:43;;;;;;;38.88;28.55;;;11.20;99.90;;;;;;5014840;28;20041;-68
2023/11/09 06:34:15;;;;;;;31.50;25.83;;;11.30;99.90;;;;;;5015974;28;20049;-68
2023/11/09 06:36:43;;;;;;;27.85;24.77;;;11.30;99.90;;;;;;5014955;28;20046;-68
2023/11/09 06:39:10;;;;;;;32.55;28.80;;;11.30;99.90;;;;;;5014128;28;20058;-68
2023/11/09 06:41:37;;;;;;;33.05;27.67;;;11.30;99.90;;;;;;5015557;28;20030;-68
2023/11/09 06:44:03;;;;;;;34.78;27.55;;;11.40;99.90;;;;;;5015796;28;20050;-68
2023/11/09 06:46:30;;;;;;;31.77;28.40;;;11.30;99.90;;;;;;5014825;28;20042;-68
2023/11/09 06:48:57;;;;;;;32.88;29.10;;;11.30;99.90;;;;;;5015740;28;20038;-67
2023/11/09 06:51:23;;;;;;;34.92;28.90;;;11.30;99.90;;;;;;5015574;28;20030;-68
2023/11/09 06:53:51;;;;;;;35.20;31.77;;;11.30;99.90;;;;;;5015241;28;20037;-68
2023/11/09 06:56:17;;;;;;;35.60;31.98;;;11.30;99.90;;;;;;5005011;28;20050;-68
2023/11/09 06:58:43;;;;;;;34.75;31.08;;;11.20;99.90;;;;;;4994543;28;20054;-68
2023/11/09 07:01:09;;;;;;;35.88;32.15;;;11.30;99.90;;;;;;4995075;28;20049;-68
2023/11/09 07:03:35;;;;;;;39.03;31.55;;;11.30;99.90;;;;;;4994363;28;20042;-68
2023/11/09 07:06:01;;;;;;;31.17;27.85;;;11.30;99.90;;;;;;4995317;28;20396;-68
2023/11/09 07:08:28;;;;;;;37.58;31.20;;;11.30;99.90;;;;;;4994974;28;20038;-68
2023/11/09 07:10:54;;;;;;;34.72;30.98;;;11.30;99.90;;;;;;4994254;28;20042;-68
2023/11/09 07:13:21;;;;;;;37.00;33.00;;;11.30;99.90;;;;;;4993999;28;20049;-68
2023/11/09 07:15:47;;;;;;;37.70;34.20;;;11.20;99.90;;;;;;4994764;28;20026;-68
2023/11/09 07:18:14;;;;;;;38.40;34.65;;;11.30;99.90;;;;;;4993505;28;20042;-68
2023/11/09 07:20:41;;;;;;;37.55;33.65;;;11.30;99.90;;;;;;4995010;28;20042;-68
2023/11/09 07:23:07;;;;;;;38.47;34.83;;;11.30;99.90;;;;;;4994738;28;20383;-67
2023/11/09 07:25:36;;;;;;;35.50;32.13;;;11.30;99.90;;;;;;4995033;28;20412;-68
2023/11/09 07:28:03;;;;;;;37.03;33.65;;;11.30;99.90;;;;;;4995152;28;20418;-68
2023/11/09 07:30:32;;;;;;;35.60;32.30;;;11.30;99.90;;;;;;4993172;28;20451;-68
2023/11/09 07:32:59;;;;;;;32.33;29.00;;;11.30;99.90;;;;;;4994880;28;20053;-68
2023/11/09 07:35:27;;;;;;;32.00;28.20;;;11.40;99.90;;;;;;4994815;28;20494;-68
2023/11/09 07:37:53;;;;;;;28.80;25.77;;;11.40;99.90;;;;;;4992466;28;20049;-68
2023/11/09 07:40:20;;;;;;;28.55;25.33;;;11.40;99.90;;;;;;4994680;28;20034;-68
2023/11/09 07:42:46;;;;;;;35.10;26.13;;;11.50;99.90;;;;;;4993580;28;20034;-68
2023/11/09 07:45:13;;;;;;;29.65;24.75;;;11.40;99.90;;;;;;4994146;28;20034;-68
2023/11/09 07:47:39;;;;;;;30.83;27.45;;;11.40;99.90;;;;;;4994488;28;20057;-69
2023/11/09 07:50:09;;;;;;;30.50;27.42;;;11.40;99.90;;;;;;4994496;28;20026;-68
2023/11/09 07:52:36;;;;;;;28.45;25.45;;;11.30;99.90;;;;;;5013519;28;20050;-68
2023/11/09 07:55:05;;;;;;;28.25;22.80;;;11.40;99.90;;;;;;5013699;28;20109;-68
2023/11/09 07:57:32;;;;;;;33.58;24.88;;;11.40;99.90;;;;;;4993947;28;20046;-68
2023/11/09 07:59:58;;;;;;;33.55;26.63;;;11.40;99.90;;;;;;4994295;28;20037;-68
2023/11/09 08:02:26;;;;;;;28.17;24.98;;;11.40;99.90;;;;;;4993341;28;20038;-68
2023/11/09 08:04:54;;;;;;;28.42;25.63;;;11.40;99.90;;;;;;4994521;28;20030;-68
2023/11/09 08:07:25;;;;;;;30.30;25.63;;;11.40;99.90;;;;;;4993558;28;20031;-68
2023/11/09 08:09:51;;;;;;;32.35;25.13;;;11.40;99.90;;;;;;4994247;28;20502;-69
2023/11/09 08:12:17;;;;;;;28.65;26.15;;;11.40;99.90;;;;;;4993981;28;20037;-68
2023/11/09 08:14:43;;;;;;;29.77;26.52;;;11.40;99.90;;;;;;4994490;28;20351;-68
2023/11/09 08:17:09;;;;;;;29.38;25.70;;;11.50;99.90;;;;;;4993373;28;20046;-68
2023/11/09 08:19:36;;;;;;;31.88;28.67;;;11.50;99.90;;;;;;4993528;28;20502;-68
2023/11/09 08:22:02;;;;;;;29.95;26.83;;;11.60;99.90;;;;;;4992318;28;20037;-68
2023/11/09 08:24:28;;;;;;;28.67;25.48;;;11.50;99.90;;;;;;4993792;28;20061;-68
2023/11/09 08:26:54;;;;;;;32.70;29.73;;;11.60;99.90;;;;;;4993730;28;20459;-68
2023/11/09 08:29:23;;;;;;;28.80;26.00;;;11.50;99.90;;;;;;4993876;28;20396;-68
2023/11/09 08:31:49;;;;;;;30.10;26.50;;;11.50;99.90;;;;;;4993053;28;20038;-68
2023/11/09 08:34:17;;;;;;;27.42;24.50;;;11.50;99.90;;;;;;4993655;28;20038;-68
2023/11/09 08:36:43;;;;;;;28.92;25.45;;;11.60;99.90;;;;;;4993764;28;20472;-68
2023/11/09 08:39:17;;;;;;;31.27;26.58;;;11.60;99.90;;;;;;4993874;28;20082;-68
2023/11/09 08:41:43;;;;;;;29.92;24.08;;;11.60;99.90;;;;;;4993501;28;20054;-68
2023/11/09 08:44:09;;;;;;;31.90;27.60;;;11.70;99.90;;;;;;4993716;28;20026;-68
2023/11/09 08:46:36;;;;;;;30.77;28.13;;;11.70;99.90;;;;;;4992525;28;20045;-68
2023/11/09 08:49:03;;;;;;;92.53;86.70;;;11.80;99.90;;;;;;4993012;28;20026;-68
2023/11/09 08:51:29;;;;;;;34.45;31.65;;;11.80;99.90;;;;;;4993392;28;20510;-68
2023/11/09 08:53:56;;;;;;;30.13;27.83;;;11.90;99.90;;;;;;4993374;28;20033;-68
2023/11/09 08:56:22;;;;;;;33.35;30.25;;;11.90;99.90;;;;;;5002581;28;20037;-68
2023/11/09 08:58:48;;;;;;;35.33;32.30;;;12.00;99.90;;;;;;5012868;28;20386;-68
2023/11/09 09:01:17;;;;;;;37.90;34.50;;;12.10;99.90;;;;;;5010770;28;20049;-68
2023/11/09 09:03:45;;;;;;;49.90;45.97;;;12.20;99.90;;;;;;5012526;28;20037;-68
2023/11/09 09:06:13;;;;;;;58.90;54.95;;;12.20;99.90;;;;;;5011239;28;20048;-68
2023/11/09 09:08:39;;;;;;;48.17;44.83;;;12.30;99.90;;;;;;5011462;28;20026;-68
2023/11/09 09:11:05;;;;;;;42.38;39.05;;;12.30;99.90;;;;;;5012562;28;20052;-68
2023/11/09 09:13:32;;;;;;;38.47;35.42;;;12.30;99.90;;;;;;5011466;28;20053;-68
2023/11/09 09:16:00;;;;;;;43.03;39.83;;;12.30;99.90;;;;;;5012107;28;20030;-68
2023/11/09 09:18:26;;;;;;;42.75;39.45;;;12.20;99.90;;;;;;5012468;28;20045;-68
2023/11/09 09:20:52;;;;;;;40.13;37.30;;;12.20;99.90;;;;;;5011018;28;20034;-68
2023/11/09 09:23:18;;;;;;;36.13;33.20;;;12.20;99.90;;;;;;5012721;28;20048;-68
2023/11/09 09:25:45;;;;;;;36.15;33.42;;;12.30;99.90;;;;;;5011927;28;20038;-68
2023/11/09 09:28:11;;;;;;;37.78;34.97;;;12.40;99.90;;;;;;5012513;28;20395;-68
2023/11/09 09:30:37;;;;;;;42.95;40.05;;;12.60;99.90;;;;;;5011546;28;20034;-68
2023/11/09 09:33:03;;;;;;;54.72;51.15;;;12.70;99.90;;;;;;5010356;28;20038;-68
2023/11/09 09:35:30;;;;;;;62.38;58.28;;;12.70;99.90;;;;;;5010949;28;20482;-68
2023/11/09 09:38:02;;;;;;;49.40;45.75;;;12.70;99.90;;;;;;5011209;28;20042;-68
2023/11/09 09:40:29;;;;;;;41.50;38.65;;;12.80;99.90;;;;;;5011830;28;20040;-68
2023/11/09 09:42:56;;;;;;;52.97;49.03;;;12.80;99.90;;;;;;5010956;28;20038;-68
2023/11/09 09:45:26;;;;;;;73.45;69.20;;;12.90;99.90;;;;;;5011351;28;20394;-68
2023/11/09 09:48:01;;;;;;;72.50;67.85;;;12.90;99.90;;;;;;5011798;28;20491;-68
2023/11/09 09:50:33;;;;;;;56.00;52.15;;;12.90;99.90;;;;;;5011772;28;20034;-68
2023/11/09 09:52:59;;;;;;;66.00;61.75;;;13.00;99.90;;;;;;5012330;28;20038;-68
2023/11/09 09:55:27;;;;;;;61.22;57.47;;;13.10;99.90;;;;;;5008378;28;20049;-68
2023/11/09 09:57:53;;;;;;;43.83;40.60;;;13.10;99.90;;;;;;4992730;28;20505;-68
2023/11/09 10:00:25;;;;;;;45.13;41.92;;;13.10;99.90;;;;;;4991846;28;20398;-68
2023/11/09 10:03:06;;;;;;;48.25;45.08;;;13.20;99.90;;;;;;4992308;28;20035;-68
2023/11/09 10:05:39;;;;;;;50.17;46.27;;;13.30;99.90;;;;;;4992330;28;20110;-68
2023/11/09 10:08:15;;;;;;;49.13;45.83;;;13.30;99.90;;;;;;4992870;28;20286;-68
2023/11/09 10:10:49;;;;;;;56.55;52.70;;;13.40;99.90;;;;;;4992363;28;20038;-68
2023/11/09 10:13:16;;;;;;;58.38;54.25;;;13.40;99.90;;;;;;4992407;28;20038;-68
2023/11/09 10:15:45;;;;;;;58.30;54.47;;;13.50;99.90;;;;;;4991453;28;20030;-68
2023/11/09 10:18:12;;;;;;;59.63;55.28;;;13.50;99.90;;;;;;4992395;28;20042;-68
2023/11/09 10:20:40;;;;;;;53.63;49.83;;;13.60;99.90;;;;;;4991940;28;20038;-68
2023/11/09 10:23:11;;;;;;;62.50;57.70;;;13.70;99.90;;;;;;4991079;28;20030;-68
2023/11/09 10:25:37;;;;;;;85.43;80.10;;;13.70;99.90;;;;;;4990746;28;20057;-68
2023/11/09 10:28:07;;;;;;;241.57;228.52;;;13.80;99.90;;;;;;4992099;28;20030;-68
2023/11/09 10:30:35;;;;;;;87.55;82.32;;;13.80;99.90;;;;;;4991614;28;20026;-68
2023/11/09 10:33:05;;;;;;;83.97;78.50;;;13.90;99.90;;;;;;4992393;28;20046;-68
2023/11/09 10:35:31;;;;;;;70.43;66.03;;;13.90;99.90;;;;;;4990851;28;20030;-68
2023/11/09 10:37:58;;;;;;;72.30;67.55;;;13.90;99.90;;;;;;4992459;28;20045;-68
2023/11/09 10:40:27;;;;;;;82.60;77.38;;;14.00;99.90;;;;;;4990833;28;20050;-68
2023/11/09 10:42:53;;;;;;;94.05;88.32;;;14.00;99.90;;;;;;4991917;28;20045;-68
2023/11/09 10:45:22;;;;;;;72.30;67.63;;;14.00;99.90;;;;;;4992118;28;20042;-68
2023/11/09 10:47:52;;;;;;;146.65;138.52;;;14.00;99.90;;;;;;4994719;28;20051;-68
2023/11/09 10:50:21;;;;;;;73.13;68.18;;;14.00;99.90;;;;;;4978583;28;20045;-67
2023/11/09 10:52:49;;;;;;;92.63;87.10;;;13.90;99.90;;;;;;4994550;28;20047;-68
2023/11/09 10:55:16;;;;;;;95.05;89.40;;;13.90;99.90;;;;;;4994851;28;20034;-68
2023/11/09 10:57:43;;;;;;;91.63;85.90;;;14.00;99.90;;;;;;5014015;28;20026;-68
2023/11/09 11:00:11;;;;;;;76.15;71.20;;;14.00;99.90;;;;;;5014233;28;20045;-67
2023/11/09 11:02:43;;;;;;;63.95;60.05;;;14.00;99.90;;;;;;4993982;28;20035;-68
2023/11/09 11:05:09;;;;;;;60.95;56.70;;;13.90;99.90;;;;;;4994116;28;20403;-68
2023/11/09 11:07:37;;;;;;;60.25;55.80;;;13.90;99.90;;;;;;4994044;28;20038;-68
2023/11/09 11:10:04;;;;;;;56.78;52.83;;;13.90;99.90;;;;;;4994283;28;20050;-68
2023/11/09 11:12:30;;;;;;;49.25;45.35;;;13.80;99.90;;;;;;4993609;28;20383;-68
2023/11/09 11:14:56;;;;;;;51.35;47.78;;;13.80;99.90;;;;;;4993720;28;20046;-68
2023/11/09 11:17:39;;;;;;;55.28;51.90;;;13.80;99.90;;;;;;4994168;28;20035;-68
2023/11/09 11:21:05;;;;;;;53.25;49.83;;;13.70;99.90;;;;;;4995303;28;20542;-68
2023/11/09 11:23:56;;;;;;;51.67;48.17;;;13.70;99.90;;;;;;5012113;28;20049;-68
2023/11/09 11:26:23;;;;;;;63.30;59.83;;;13.60;99.90;;;;;;5011344;28;20050;-68
2023/11/09 11:28:49;;;;;;;66.95;63.05;;;13.60;99.90;;;;;;4979898;28;20041;-68
2023/11/09 11:31:15;;;;;;;74.38;70.35;;;13.50;99.90;;;;;;4994582;28;20530;-68
2023/11/09 11:33:41;;;;;;;76.95;72.55;;;13.50;99.90;;;;;;4979765;28;20041;-68
2023/11/09 11:36:24;;;;;;;80.75;76.40;;;13.60;99.90;;;;;;4979139;28;20041;-68
2023/11/09 11:39:09;;;;;;;79.15;75.07;;;13.70;99.90;;;;;;4982074;28;20164;-68
2023/11/09 11:41:38;;;;;;;108.47;103.05;;;13.80;99.90;;;;;;4995433;28;20053;-68
2023/11/09 11:44:05;;;;;;;98.10;93.10;;;14.00;99.90;;;;;;4995923;28;20030;-68
2023/11/09 11:46:32;;;;;;;108.28;102.57;;;14.00;99.90;;;;;;5010806;28;20046;-68
2023/11/09 11:48:58;;;;;;;111.93;106.32;;;14.10;99.90;;;;;;4979295;28;20034;-68
2023/11/09 11:51:27;;;;;;;110.07;104.47;;;14.20;99.90;;;;;;4978855;28;20445;-68
2023/11/09 11:54:15;;;;;;;114.43;108.50;;;14.30;99.90;;;;;;5005788;28;20046;-68
2023/11/09 11:56:42;;;;;;;121.82;115.32;;;14.20;99.90;;;;;;5005636;28;20053;-68
2023/11/09 11:59:11;;;;;;;122.30;115.63;;;14.30;99.90;;;;;;5013788;28;20038;-68
2023/11/09 12:01:40;;;;;;;115.00;108.95;;;14.20;99.90;;;;;;4995853;28;20518;-68
2023/11/09 12:04:06;;;;;;;106.78;101.15;;;14.10;99.90;;;;;;5012191;28;20034;-68
2023/11/09 12:06:34;;;;;;;100.65;95.53;;;14.00;99.90;;;;;;5012180;28;20041;-68
2023/11/09 12:09:07;;;;;;;81.40;76.28;;;14.00;99.90;;;;;;4996197;28;20038;-67
2023/11/09 12:11:47;;;;;;;84.55;79.53;;;13.90;99.90;;;;;;5011930;28;20029;-68
2023/11/09 12:14:15;;;;;;;66.65;62.80;;;13.80;99.90;;;;;;5013815;28;20029;-68
2023/11/09 12:16:41;;;;;;;65.63;62.13;;;13.70;99.90;;;;;;5011650;28;20209;-68
2023/11/09 12:19:11;;;;;;;82.05;77.80;;;13.70;99.90;;;;;;4995551;28;20041;-68
2023/11/09 12:21:37;;;;;;;86.30;81.80;;;13.90;99.90;;;;;;5013617;28;20045;-68
2023/11/09 12:24:04;;;;;;;88.32;83.97;;;13.90;99.90;;;;;;5013441;28;20050;-68
2023/11/09 12:26:32;;;;;;;99.32;94.40;;;13.90;99.90;;;;;;5012939;28;20471;-68
2023/11/09 12:29:00;;;;;;;113.53;107.75;;;13.90;99.90;;;;;;5011935;28;20038;-68
2023/11/09 12:31:27;;;;;;;113.55;107.80;;;13.90;99.90;;;;;;5012445;28;20045;-68
2023/11/09 12:34:08;;;;;;;85.20;80.43;;;13.90;99.90;;;;;;5013471;28;20022;-67
2023/11/09 12:36:38;;;;;;;68.63;64.97;;;13.80;99.90;;;;;;5012839;28;20032;-68
2023/11/09 12:39:22;;;;;;;80.05;75.68;;;13.90;99.90;;;;;;5011898;28;20386;-68